createdAt,value
2022-10-07T00:00:10.824Z,73.84
2022-10-07T00:01:10.955Z,73.54
2022-10-07T00:02:10.892Z,73.54
2022-10-07T00:03:10.802Z,73.13
2022-10-07T00:04:10.792Z,73.33
2022-10-07T00:05:10.805Z,72.92
2022-10-07T00:06:10.782Z,73.54
2022-10-07T00:07:10.757Z,73.67
2022-10-07T00:08:10.743Z,73.67
2022-10-07T00:09:10.736Z,73.67
2022-10-07T00:10:10.731Z,73.88
2022-10-07T00:11:10.729Z,74.04
2022-10-07T00:12:10.695Z,74.25
2022-10-07T00:13:10.721Z,75.06
2022-10-07T00:14:10.673Z,74.15
2022-10-07T00:15:11.698Z,73.97
2022-10-07T00:16:10.792Z,74.08
2022-10-07T00:17:10.646Z,73.88
2022-10-07T00:18:10.635Z,74.18
2022-10-07T00:19:10.618Z,74.45
2022-10-07T00:20:10.607Z,74.69
2022-10-07T00:21:10.624Z,74.90
2022-10-07T00:22:10.593Z,74.76
2022-10-07T00:23:10.583Z,74.76
2022-10-07T00:24:10.569Z,75.10
2022-10-07T00:25:10.551Z,74.18
2022-10-07T00:26:10.546Z,74.99
2022-10-07T00:27:10.561Z,74.99
2022-10-07T00:28:10.567Z,74.79
2022-10-07T00:29:10.646Z,74.79
2022-10-07T00:30:10.655Z,74.79
2022-10-07T00:31:10.637Z,74.79
2022-10-07T00:32:10.478Z,74.38
2022-10-07T00:33:10.472Z,74.08
2022-10-07T00:34:10.459Z,74.21
2022-10-07T00:35:10.462Z,74.28
2022-10-07T00:36:10.962Z,75.13
2022-10-07T00:37:10.418Z,75.03
2022-10-07T00:38:10.417Z,74.83
2022-10-07T00:39:10.398Z,74.79
2022-10-07T00:40:10.417Z,75.13
2022-10-07T00:41:10.386Z,74.28
2022-10-07T00:42:10.417Z,73.91
2022-10-07T00:43:10.351Z,73.97
2022-10-07T00:44:10.374Z,74.01
2022-10-07T00:45:10.349Z,73.91
2022-10-07T00:46:10.424Z,73.97
2022-10-07T00:47:10.335Z,74.01
2022-10-07T00:48:10.339Z,73.50
2022-10-07T00:49:10.288Z,73.50
2022-10-07T00:50:10.308Z,73.50
2022-10-07T00:51:10.264Z,73.71
2022-10-07T00:52:10.253Z,73.60
2022-10-07T00:53:10.246Z,73.60
2022-10-07T00:54:10.241Z,74.11
2022-10-07T00:55:10.245Z,74.32
2022-10-07T00:56:10.243Z,73.71
2022-10-07T00:57:10.200Z,73.71
2022-10-07T00:58:10.190Z,74.42
2022-10-07T00:59:10.203Z,74.21
2022-10-07T01:00:10.205Z,73.91
2022-10-07T01:01:10.278Z,74.01
2022-10-07T01:02:10.225Z,74.42
2022-10-07T01:03:10.130Z,74.42
2022-10-07T01:04:10.182Z,74.01
2022-10-07T01:05:10.115Z,73.81
2022-10-07T01:06:10.103Z,73.60
2022-10-07T01:07:10.122Z,73.71
2022-10-07T01:08:10.090Z,73.74
2022-10-07T01:09:10.076Z,73.81
2022-10-07T01:10:10.067Z,73.13
2022-10-07T01:11:10.072Z,73.13
2022-10-07T01:12:10.057Z,73.64
2022-10-07T01:13:10.038Z,74.05
2022-10-07T01:14:10.020Z,73.94
2022-10-07T01:15:10.012Z,73.84
2022-10-07T01:16:10.934Z,74.05
2022-10-07T01:17:10.071Z,74.15
2022-10-07T01:18:09.976Z,74.05
2022-10-07T01:19:09.970Z,74.15
2022-10-07T01:20:09.952Z,74.25
2022-10-07T01:21:09.945Z,73.98
2022-10-07T01:22:09.978Z,75.16
2022-10-07T01:23:09.956Z,74.76
2022-10-07T01:24:09.947Z,75.57
2022-10-07T01:25:09.930Z,75.37
2022-10-07T01:26:09.892Z,75.37
2022-10-07T01:27:09.900Z,75.61
2022-10-07T01:28:10.013Z,75.48
2022-10-07T01:29:09.852Z,75.37
2022-10-07T01:30:09.845Z,75.48
2022-10-07T01:31:09.899Z,75.57
2022-10-07T01:32:09.825Z,74.90
2022-10-07T01:33:09.866Z,74.96
2022-10-07T01:34:09.857Z,75.51
2022-10-07T01:35:09.793Z,75.57
2022-10-07T01:36:09.774Z,75.27
2022-10-07T01:37:09.776Z,75.48
2022-10-07T01:38:09.820Z,75.10
2022-10-07T01:39:09.743Z,74.86
2022-10-07T01:40:09.754Z,75.41
2022-10-07T01:41:09.729Z,75.51
2022-10-07T01:42:09.718Z,74.90
2022-10-07T01:43:09.705Z,75.41
2022-10-07T01:44:09.718Z,75.57
2022-10-07T01:45:09.688Z,75.41
2022-10-07T01:46:09.789Z,75.31
2022-10-07T01:47:09.663Z,75.00
2022-10-07T01:48:09.653Z,75.00
2022-10-07T01:49:09.679Z,75.61
2022-10-07T01:50:09.667Z,75.41
2022-10-07T01:51:09.623Z,75.31
2022-10-07T01:52:09.611Z,75.00
2022-10-07T01:53:09.623Z,75.10
2022-10-07T01:54:09.591Z,75.20
2022-10-07T01:55:09.577Z,75.41
2022-10-07T01:56:12.814Z,75.37
2022-10-07T01:57:09.558Z,75.51
2022-10-07T01:58:09.551Z,75.31
2022-10-07T01:59:09.543Z,75.41
2022-10-07T02:00:09.522Z,75.41
2022-10-07T02:01:09.582Z,75.51
2022-10-07T02:02:09.507Z,75.51
2022-10-07T02:03:09.483Z,75.51
2022-10-07T02:04:09.550Z,75.20
2022-10-07T02:05:09.497Z,75.31
2022-10-07T02:06:09.512Z,75.51
2022-10-07T02:07:09.441Z,74.90
2022-10-07T02:08:09.445Z,74.69
2022-10-07T02:09:09.432Z,74.79
2022-10-07T02:10:09.406Z,74.90
2022-10-07T02:11:09.403Z,74.90
2022-10-07T02:12:09.391Z,74.79
2022-10-07T02:13:09.387Z,75.41
2022-10-07T02:14:09.375Z,75.04
2022-10-07T02:15:09.357Z,75.10
2022-10-07T02:16:10.327Z,74.83
2022-10-07T02:17:09.329Z,75.24
2022-10-07T02:18:09.329Z,74.93
2022-10-07T02:19:09.332Z,75.61
2022-10-07T02:20:09.297Z,75.65
2022-10-07T02:21:09.301Z,75.54
2022-10-07T02:22:09.283Z,75.65
2022-10-07T02:23:09.269Z,75.24
2022-10-07T02:24:09.257Z,74.93
2022-10-07T02:25:09.257Z,75.54
2022-10-07T02:26:09.241Z,75.54
2022-10-07T02:27:09.226Z,75.44
2022-10-07T02:28:09.304Z,74.93
2022-10-07T02:29:09.216Z,74.93
2022-10-07T02:30:09.217Z,74.93
2022-10-07T02:31:09.255Z,74.93
2022-10-07T02:32:09.169Z,75.54
2022-10-07T02:33:09.157Z,75.44
2022-10-07T02:34:09.164Z,75.34
2022-10-07T02:35:09.149Z,75.34
2022-10-07T02:36:09.137Z,75.44
2022-10-07T02:37:09.143Z,75.34
2022-10-07T02:38:09.101Z,75.34
2022-10-07T02:39:09.100Z,75.34
2022-10-07T02:40:12.151Z,75.44
2022-10-07T02:41:09.089Z,75.37
2022-10-07T02:42:09.057Z,75.34
2022-10-07T02:43:09.045Z,75.58
2022-10-07T02:44:09.043Z,75.48
2022-10-07T02:45:09.036Z,75.58
2022-10-07T02:46:09.087Z,75.48
2022-10-07T02:47:09.001Z,75.17
2022-10-07T02:48:08.989Z,75.51
2022-10-07T02:49:08.986Z,75.41
2022-10-07T02:50:08.977Z,75.41
2022-10-07T02:51:08.961Z,75.48
2022-10-07T02:52:08.969Z,75.99
2022-10-07T02:53:08.964Z,75.68
2022-10-07T02:54:08.926Z,76.33
2022-10-07T02:55:08.919Z,75.82
2022-10-07T02:56:08.905Z,76.12
2022-10-07T02:57:08.908Z,75.71
2022-10-07T02:58:08.895Z,75.48
2022-10-07T02:59:08.886Z,75.89
2022-10-07T03:00:11.347Z,75.78
2022-10-07T03:01:08.855Z,76.12
2022-10-07T03:02:08.861Z,75.78
2022-10-07T03:03:08.853Z,75.71
2022-10-07T03:04:08.823Z,76.03
2022-10-07T03:05:08.805Z,75.89
2022-10-07T03:06:08.803Z,75.82
2022-10-07T03:07:08.793Z,75.78
2022-10-07T03:08:08.787Z,75.48
2022-10-07T03:09:08.789Z,76.12
2022-10-07T03:10:08.752Z,75.99
2022-10-07T03:11:08.739Z,75.68
2022-10-07T03:12:08.739Z,75.68
2022-10-07T03:13:08.733Z,75.89
2022-10-07T03:14:08.713Z,75.78
2022-10-07T03:15:08.701Z,76.09
2022-10-07T03:16:08.749Z,75.99
2022-10-07T03:17:08.678Z,75.68
2022-10-07T03:18:08.662Z,75.82
2022-10-07T03:19:08.669Z,75.78
2022-10-07T03:20:08.649Z,75.78
2022-10-07T03:21:08.642Z,75.62
2022-10-07T03:22:08.628Z,75.51
2022-10-07T03:23:08.609Z,75.51
2022-10-07T03:24:08.911Z,75.51
2022-10-07T03:25:08.610Z,75.92
2022-10-07T03:26:08.576Z,76.03
2022-10-07T03:27:08.574Z,75.92
2022-10-07T03:28:08.599Z,75.62
2022-10-07T03:29:08.539Z,76.03
2022-10-07T03:30:08.539Z,76.12
2022-10-07T03:31:08.593Z,75.62
2022-10-07T03:32:08.533Z,75.62
2022-10-07T03:33:08.513Z,75.82
2022-10-07T03:34:08.496Z,75.71
2022-10-07T03:35:08.479Z,75.71
2022-10-07T03:36:08.478Z,75.51
2022-10-07T03:37:08.507Z,75.92
2022-10-07T03:38:08.455Z,75.31
2022-10-07T03:39:08.442Z,76.12
2022-10-07T03:40:08.434Z,75.55
2022-10-07T03:41:08.443Z,75.51
2022-10-07T03:42:08.412Z,76.06
2022-10-07T03:43:08.399Z,75.85
2022-10-07T03:44:08.388Z,75.71
2022-10-07T03:45:08.386Z,75.96
2022-10-07T03:46:08.439Z,76.53
2022-10-07T03:47:10.680Z,76.47
2022-10-07T03:48:08.344Z,75.96
2022-10-07T03:49:08.334Z,75.85
2022-10-07T03:50:08.322Z,75.75
2022-10-07T03:51:08.416Z,76.37
2022-10-07T03:52:08.300Z,76.47
2022-10-07T03:53:08.298Z,76.67
2022-10-07T03:54:08.277Z,77.08
2022-10-07T03:55:08.258Z,77.08
2022-10-07T03:56:08.281Z,77.70
2022-10-07T03:57:08.329Z,77.19
2022-10-07T03:58:08.235Z,77.19
2022-10-07T03:59:08.223Z,77.19
2022-10-07T04:00:08.214Z,77.53
2022-10-07T04:01:08.193Z,77.39
2022-10-07T04:02:08.269Z,77.49
2022-10-07T04:03:08.239Z,77.39
2022-10-07T04:04:08.167Z,77.29
2022-10-07T04:05:08.158Z,77.19
2022-10-07T04:06:08.149Z,76.88
2022-10-07T04:07:08.149Z,76.47
2022-10-07T04:08:08.115Z,76.37
2022-10-07T04:09:08.111Z,76.47
2022-10-07T04:10:08.113Z,76.40
2022-10-07T04:11:08.086Z,76.26
2022-10-07T04:12:08.073Z,76.37
2022-10-07T04:13:08.079Z,76.57
2022-10-07T04:14:08.065Z,76.47
2022-10-07T04:15:08.040Z,76.37
2022-10-07T04:16:08.103Z,76.40
2022-10-07T04:17:08.023Z,76.81
2022-10-07T04:18:08.013Z,76.50
2022-10-07T04:19:08.033Z,76.47
2022-10-07T04:20:07.989Z,76.88
2022-10-07T04:21:07.982Z,76.78
2022-10-07T04:22:09.085Z,77.59
2022-10-07T04:23:07.952Z,77.49
2022-10-07T04:24:07.948Z,77.49
2022-10-07T04:25:07.950Z,77.32
2022-10-07T04:26:07.943Z,77.49
2022-10-07T04:27:07.987Z,76.61
2022-10-07T04:28:07.968Z,76.40
2022-10-07T04:29:07.911Z,76.81
2022-10-07T04:30:07.883Z,77.53
2022-10-07T04:31:07.897Z,77.19
2022-10-07T04:32:07.869Z,77.32
2022-10-07T04:33:07.840Z,77.32
2022-10-07T04:34:07.835Z,77.22
2022-10-07T04:35:07.823Z,77.22
2022-10-07T04:36:07.809Z,77.22
2022-10-07T04:37:07.827Z,77.32
2022-10-07T04:38:07.794Z,77.53
2022-10-07T04:39:07.782Z,77.63
2022-10-07T04:40:07.764Z,77.22
2022-10-07T04:41:07.753Z,77.08
2022-10-07T04:42:07.762Z,77.22
2022-10-07T04:43:07.734Z,77.63
2022-10-07T04:44:07.727Z,77.01
2022-10-07T04:45:07.736Z,77.42
2022-10-07T04:46:07.703Z,77.42
2022-10-07T04:47:07.808Z,77.32
2022-10-07T04:48:07.684Z,77.42
2022-10-07T04:49:07.680Z,77.42
2022-10-07T04:50:07.683Z,77.22
2022-10-07T04:51:07.647Z,77.22
2022-10-07T04:52:07.643Z,77.12
2022-10-07T04:53:07.653Z,77.22
2022-10-07T04:54:07.612Z,76.91
2022-10-07T04:55:07.613Z,77.15
2022-10-07T04:56:07.609Z,77.26
2022-10-07T04:57:07.592Z,77.56
2022-10-07T04:58:07.603Z,77.70
2022-10-07T04:59:07.614Z,77.67
2022-10-07T05:00:07.553Z,77.50
2022-10-07T05:01:07.656Z,78.11
2022-10-07T05:02:07.576Z,78.31
2022-10-07T05:03:07.528Z,78.11
2022-10-07T05:04:07.516Z,78.21
2022-10-07T05:05:07.502Z,78.01
2022-10-07T05:06:07.494Z,78.42
2022-10-07T05:07:07.558Z,78.31
2022-10-07T05:08:07.479Z,78.21
2022-10-07T05:09:07.490Z,78.11
2022-10-07T05:10:07.460Z,81.86
2022-10-07T05:11:07.455Z,82.48
2022-10-07T05:12:07.444Z,83.19
2022-10-07T05:13:07.406Z,83.50
2022-10-07T05:14:07.398Z,82.95
2022-10-07T05:15:07.383Z,81.93
2022-10-07T05:16:07.411Z,78.89
2022-10-07T05:17:07.376Z,78.89
2022-10-07T05:18:07.370Z,78.79
2022-10-07T05:19:07.341Z,78.31
2022-10-07T05:20:08.000Z,78.38
2022-10-07T05:21:07.318Z,78.93
2022-10-07T05:22:07.319Z,78.93
2022-10-07T05:23:07.311Z,78.93
2022-10-07T05:24:07.292Z,78.72
2022-10-07T05:25:07.279Z,78.72
2022-10-07T05:26:07.274Z,78.83
2022-10-07T05:27:07.261Z,79.13
2022-10-07T05:28:07.265Z,78.93
2022-10-07T05:29:07.225Z,78.72
2022-10-07T05:30:07.226Z,78.72
2022-10-07T05:31:07.305Z,79.17
2022-10-07T05:32:07.257Z,79.58
2022-10-07T05:33:07.301Z,80.09
2022-10-07T05:34:07.185Z,79.99
2022-10-07T05:35:07.194Z,80.30
2022-10-07T05:36:07.155Z,80.40
2022-10-07T05:37:07.149Z,79.99
2022-10-07T05:38:07.161Z,80.30
2022-10-07T05:39:07.136Z,80.19
2022-10-07T05:40:07.119Z,80.40
2022-10-07T05:41:07.115Z,80.40
2022-10-07T05:42:07.092Z,80.51
2022-10-07T05:43:07.086Z,80.09
2022-10-07T05:44:07.090Z,79.99
2022-10-07T05:45:07.054Z,80.09
2022-10-07T05:46:07.131Z,80.51
2022-10-07T05:47:07.035Z,79.85
2022-10-07T05:48:07.028Z,79.48
2022-10-07T05:49:07.038Z,79.79
2022-10-07T05:50:07.016Z,80.51
2022-10-07T05:51:07.015Z,80.16
2022-10-07T05:52:06.982Z,80.16
2022-10-07T05:53:06.967Z,79.96
2022-10-07T05:54:06.964Z,79.96
2022-10-07T05:55:06.957Z,79.75
2022-10-07T05:56:06.950Z,79.64
2022-10-07T05:57:06.942Z,79.24
2022-10-07T05:58:06.914Z,79.13
2022-10-07T05:59:06.910Z,79.64
2022-10-07T06:00:06.926Z,79.24
2022-10-07T06:01:11.440Z,79.13
2022-10-07T06:02:06.955Z,79.03
2022-10-07T06:03:07.046Z,79.24
2022-10-07T06:04:06.855Z,79.54
2022-10-07T06:05:06.871Z,79.79
2022-10-07T06:06:06.834Z,80.16
2022-10-07T06:07:06.830Z,80.26
2022-10-07T06:08:06.828Z,80.26
2022-10-07T06:09:06.798Z,80.30
2022-10-07T06:10:06.785Z,80.16
2022-10-07T06:11:06.770Z,80.36
2022-10-07T06:12:06.780Z,79.75
2022-10-07T06:13:06.762Z,79.54
2022-10-07T06:14:06.738Z,79.54
2022-10-07T06:15:06.926Z,79.54
2022-10-07T06:16:06.788Z,79.03
2022-10-07T06:17:06.720Z,79.10
2022-10-07T06:18:06.706Z,79.30
2022-10-07T06:19:06.689Z,79.30
2022-10-07T06:20:06.686Z,79.20
2022-10-07T06:21:06.694Z,79.41
2022-10-07T06:22:06.672Z,79.20
2022-10-07T06:23:06.642Z,79.10
2022-10-07T06:24:06.629Z,79.13
2022-10-07T06:25:06.638Z,79.71
2022-10-07T06:26:06.614Z,80.36
2022-10-07T06:27:06.601Z,80.02
2022-10-07T06:28:06.952Z,79.82
2022-10-07T06:29:06.584Z,79.41
2022-10-07T06:30:06.571Z,79.71
2022-10-07T06:31:06.612Z,79.50
2022-10-07T06:32:06.551Z,79.85
2022-10-07T06:33:06.553Z,79.71
2022-10-07T06:34:06.527Z,80.05
2022-10-07T06:35:06.538Z,79.71
2022-10-07T06:36:06.508Z,79.61
2022-10-07T06:37:06.526Z,79.10
2022-10-07T06:38:06.487Z,79.00
2022-10-07T06:39:06.490Z,79.10
2022-10-07T06:40:06.457Z,79.61
2022-10-07T06:41:06.444Z,79.50
2022-10-07T06:42:06.439Z,79.50
2022-10-07T06:43:06.441Z,79.20
2022-10-07T06:44:06.428Z,79.00
2022-10-07T06:45:06.469Z,79.50
2022-10-07T06:46:06.520Z,79.82
2022-10-07T06:47:11.255Z,79.96
2022-10-07T06:48:07.374Z,80.02
2022-10-07T06:49:06.375Z,79.96
2022-10-07T06:50:06.499Z,79.85
2022-10-07T06:51:06.345Z,80.12
2022-10-07T06:52:06.327Z,79.91
2022-10-07T06:53:06.340Z,80.02
2022-10-07T06:54:06.321Z,79.91
2022-10-07T06:55:06.306Z,79.91
2022-10-07T06:56:06.281Z,79.91
2022-10-07T06:57:26.287Z,79.98
2022-10-07T06:58:11.472Z,79.68
2022-10-07T06:59:06.251Z,79.47
2022-10-07T07:00:06.244Z,79.68
2022-10-07T07:01:06.330Z,79.57
2022-10-07T07:02:06.262Z,79.68
2022-10-07T07:03:06.203Z,79.47
2022-10-07T07:04:06.243Z,79.47
2022-10-07T07:05:06.201Z,79.02
2022-10-07T07:06:06.178Z,79.13
2022-10-07T07:07:06.181Z,79.23
2022-10-07T07:08:06.147Z,79.13
2022-10-07T07:09:06.170Z,78.68
2022-10-07T07:10:06.136Z,78.41
2022-10-07T07:11:06.122Z,78.17
2022-10-07T07:12:06.139Z,78.48
2022-10-07T07:13:06.125Z,78.27
2022-10-07T07:14:06.089Z,78.48
2022-10-07T07:15:06.080Z,77.72
2022-10-07T07:16:06.070Z,77.76
2022-10-07T07:17:06.183Z,77.93
2022-10-07T07:18:06.063Z,77.45
2022-10-07T07:19:06.035Z,77.22
2022-10-07T07:20:06.027Z,77.62
2022-10-07T07:21:06.010Z,77.42
2022-10-07T07:22:06.002Z,77.52
2022-10-07T07:23:05.994Z,77.28
2022-10-07T07:24:06.053Z,77.28
2022-10-07T07:25:05.993Z,77.38
2022-10-07T07:26:05.964Z,77.08
2022-10-07T07:27:05.949Z,76.53
2022-10-07T07:28:06.003Z,75.95
2022-10-07T07:29:05.942Z,76.22
2022-10-07T07:30:05.908Z,76.12
2022-10-07T07:31:05.999Z,76.19
2022-10-07T07:32:05.919Z,76.29
2022-10-07T07:33:05.878Z,75.78
2022-10-07T07:34:05.873Z,75.88
2022-10-07T07:35:05.878Z,75.27
2022-10-07T07:36:05.842Z,75.37
2022-10-07T07:37:05.837Z,75.07
2022-10-07T07:38:05.822Z,75.48
2022-10-07T07:39:05.835Z,75.27
2022-10-07T07:40:05.823Z,75.27
2022-10-07T07:41:05.849Z,74.86
2022-10-07T07:42:05.786Z,74.73
2022-10-07T07:43:05.767Z,74.83
2022-10-07T07:44:05.764Z,74.73
2022-10-07T07:45:05.769Z,74.83
2022-10-07T07:46:05.784Z,74.99
2022-10-07T07:47:05.725Z,73.88
2022-10-07T07:48:05.726Z,73.77
2022-10-07T07:49:05.707Z,74.18
2022-10-07T07:50:05.730Z,74.38
2022-10-07T07:51:05.686Z,73.97
2022-10-07T07:52:05.675Z,73.47
2022-10-07T07:53:05.656Z,73.54
2022-10-07T07:54:05.682Z,73.74
2022-10-07T07:55:05.649Z,72.72
2022-10-07T07:56:05.625Z,73.43
2022-10-07T07:57:05.637Z,73.10
2022-10-07T07:58:08.464Z,73.10
2022-10-07T07:59:06.628Z,73.10
2022-10-07T08:00:05.590Z,73.26
2022-10-07T08:01:05.612Z,72.34
2022-10-07T08:02:05.664Z,72.25
2022-10-07T08:03:05.550Z,72.14
2022-10-07T08:04:05.566Z,71.80
2022-10-07T08:05:05.565Z,71.60
2022-10-07T08:06:05.515Z,71.70
2022-10-07T08:07:05.517Z,71.09
2022-10-07T08:08:05.493Z,70.86
2022-10-07T08:09:05.507Z,70.35
2022-10-07T08:10:05.506Z,70.96
2022-10-07T08:11:05.462Z,70.25
2022-10-07T08:12:05.458Z,70.11
2022-10-07T08:13:05.476Z,70.11
2022-10-07T08:14:05.437Z,70.42
2022-10-07T08:15:05.438Z,70.01
2022-10-07T08:16:05.519Z,70.31
2022-10-07T08:17:05.392Z,69.91
2022-10-07T08:18:05.391Z,69.06
2022-10-07T08:19:05.378Z,69.37
2022-10-07T08:20:05.377Z,69.74
2022-10-07T08:21:05.576Z,68.96
2022-10-07T08:22:05.344Z,68.83
2022-10-07T08:23:05.341Z,68.73
2022-10-07T08:24:05.320Z,68.79
2022-10-07T08:25:05.389Z,68.29
2022-10-07T08:26:05.304Z,67.98
2022-10-07T08:27:05.310Z,67.85
2022-10-07T08:28:05.359Z,67.21
2022-10-07T08:29:05.292Z,67.14
2022-10-07T08:30:05.260Z,66.63
2022-10-07T08:31:05.266Z,66.60
2022-10-07T08:32:05.269Z,65.96
2022-10-07T08:33:05.222Z,65.19
2022-10-07T08:34:05.215Z,63.96
2022-10-07T08:35:05.204Z,60.98
2022-10-07T08:36:05.193Z,57.29
2022-10-07T08:37:05.187Z,53.85
2022-10-07T08:38:05.224Z,52.07
2022-10-07T08:39:05.161Z,50.27
2022-10-07T08:40:05.151Z,48.00
2022-10-07T08:41:05.136Z,47.11
2022-10-07T08:42:05.125Z,45.03
2022-10-07T08:43:05.142Z,43.36
2022-10-07T08:44:07.927Z,41.89
2022-10-07T08:45:05.109Z,40.53
2022-10-07T08:46:05.132Z,38.29
2022-10-07T08:47:05.073Z,37.47
2022-10-07T08:48:05.100Z,37.04
2022-10-07T08:49:05.052Z,36.63
2022-10-07T08:50:05.038Z,36.43
2022-10-07T08:51:05.032Z,36.22
2022-10-07T08:52:05.009Z,34.99
2022-10-07T08:53:05.146Z,34.38
2022-10-07T08:54:04.991Z,34.36
2022-10-07T08:55:04.981Z,34.06
2022-10-07T08:56:04.976Z,34.36
2022-10-07T08:57:04.964Z,34.77
2022-10-07T08:58:04.981Z,34.99
2022-10-07T08:59:04.944Z,34.70
2022-10-07T09:00:04.926Z,34.89
2022-10-07T09:01:05.003Z,34.39
2022-10-07T09:02:04.903Z,34.99
2022-10-07T09:03:04.894Z,35.49
2022-10-07T09:04:04.925Z,35.11
2022-10-07T09:05:04.873Z,35.44
2022-10-07T09:06:04.863Z,36.68
2022-10-07T09:07:04.861Z,37.15
2022-10-07T09:08:04.877Z,38.09
2022-10-07T09:09:04.841Z,40.17
2022-10-07T09:10:04.822Z,40.62
2022-10-07T09:11:07.941Z,41.47
2022-10-07T09:12:04.802Z,43.30
2022-10-07T09:13:04.802Z,45.09
2022-10-07T09:14:04.820Z,45.95
2022-10-07T09:15:04.773Z,47.57
2022-10-07T09:16:04.830Z,47.61
2022-10-07T09:17:04.772Z,48.58
2022-10-07T09:18:04.739Z,49.84
2022-10-07T09:19:04.730Z,51.06
2022-10-07T09:20:04.743Z,51.19
2022-10-07T09:21:04.711Z,51.72
2022-10-07T09:22:04.692Z,52.12
2022-10-07T09:23:04.697Z,52.84
2022-10-07T09:24:04.697Z,53.12
2022-10-07T09:25:09.008Z,53.05
2022-10-07T09:26:05.705Z,53.37
2022-10-07T09:27:04.659Z,53.17
2022-10-07T09:28:04.655Z,53.47
2022-10-07T09:29:04.639Z,53.20
2022-10-07T09:30:04.607Z,54.00
2022-10-07T09:31:04.678Z,54.23
2022-10-07T09:32:04.597Z,54.93
2022-10-07T09:33:04.608Z,54.83
2022-10-07T09:34:04.562Z,53.83
2022-10-07T09:35:04.564Z,54.71
2022-10-07T09:36:04.578Z,54.78
2022-10-07T09:37:04.540Z,53.02
2022-10-07T09:38:04.550Z,52.19
2022-10-07T09:39:04.519Z,51.56
2022-10-07T09:40:04.508Z,50.69
2022-10-07T09:41:04.491Z,50.04
2022-10-07T09:42:04.520Z,47.25
2022-10-07T09:43:04.473Z,44.84
2022-10-07T09:44:04.468Z,43.46
2022-10-07T09:45:04.461Z,43.13
2022-10-07T09:46:04.481Z,42.65
2022-10-07T09:47:04.433Z,41.39
2022-10-07T09:48:04.453Z,43.59
2022-10-07T09:49:04.419Z,45.95
2022-10-07T09:50:04.390Z,46.80
2022-10-07T09:51:04.381Z,48.04
2022-10-07T09:52:04.399Z,48.79
2022-10-07T09:53:04.369Z,49.76
2022-10-07T09:54:04.381Z,51.24
2022-10-07T09:55:04.340Z,52.49
2022-10-07T09:56:04.334Z,52.80
2022-10-07T09:57:04.324Z,53.52
2022-10-07T09:58:04.341Z,53.32
2022-10-07T09:59:04.293Z,53.12
2022-10-07T10:00:04.281Z,53.42
2022-10-07T10:01:04.266Z,54.03
2022-10-07T10:02:04.381Z,53.52
2022-10-07T10:03:05.735Z,53.32
2022-10-07T10:04:04.245Z,54.25
2022-10-07T10:05:04.243Z,54.75
2022-10-07T10:06:04.255Z,54.86
2022-10-07T10:07:04.212Z,54.53
2022-10-07T10:08:04.203Z,54.96
2022-10-07T10:09:04.188Z,54.43
2022-10-07T10:10:04.183Z,54.23
2022-10-07T10:11:04.167Z,54.35
2022-10-07T10:12:04.194Z,54.75
2022-10-07T10:13:04.139Z,54.79
2022-10-07T10:14:04.127Z,54.88
2022-10-07T10:15:04.152Z,55.01
2022-10-07T10:16:04.201Z,55.29
2022-10-07T10:17:04.098Z,55.69
2022-10-07T10:18:04.214Z,55.08
2022-10-07T10:19:04.075Z,55.56
2022-10-07T10:20:04.088Z,55.16
2022-10-07T10:21:04.076Z,54.73
2022-10-07T10:22:04.041Z,54.73
2022-10-07T10:23:04.069Z,53.30
2022-10-07T10:24:04.021Z,53.30
2022-10-07T10:25:04.007Z,53.17
2022-10-07T10:26:04.030Z,53.37
2022-10-07T10:27:03.994Z,53.14
2022-10-07T10:28:04.704Z,52.74
2022-10-07T10:29:03.996Z,53.02
2022-10-07T10:30:03.972Z,51.81
2022-10-07T10:31:04.012Z,52.12
2022-10-07T10:32:03.930Z,52.01
2022-10-07T10:33:03.929Z,52.04
2022-10-07T10:34:03.915Z,52.14
2022-10-07T10:35:03.925Z,52.37
2022-10-07T10:36:03.886Z,52.64
2022-10-07T10:37:03.905Z,52.94
2022-10-07T10:38:03.870Z,52.37
2022-10-07T10:39:03.865Z,52.37
2022-10-07T10:40:03.876Z,53.47
2022-10-07T10:41:03.836Z,53.47
2022-10-07T10:42:03.824Z,53.47
2022-10-07T10:43:03.836Z,53.17
2022-10-07T10:44:03.812Z,53.27
2022-10-07T10:45:03.814Z,53.47
2022-10-07T10:46:03.816Z,53.27
2022-10-07T10:47:03.848Z,53.17
2022-10-07T10:48:03.767Z,53.30
2022-10-07T10:49:03.746Z,53.32
2022-10-07T10:50:03.763Z,54.13
2022-10-07T10:51:03.724Z,54.83
2022-10-07T10:52:03.719Z,53.32
2022-10-07T10:53:03.729Z,54.53
2022-10-07T10:54:03.695Z,54.63
2022-10-07T10:55:03.680Z,54.93
2022-10-07T10:56:03.710Z,54.13
2022-10-07T10:57:03.656Z,53.63
2022-10-07T10:58:03.656Z,53.92
2022-10-07T10:59:03.643Z,54.43
2022-10-07T11:00:03.660Z,54.40
2022-10-07T11:01:03.622Z,53.12
2022-10-07T11:02:03.702Z,53.52
2022-10-07T11:03:03.689Z,53.42
2022-10-07T11:04:03.614Z,53.42
2022-10-07T11:05:03.573Z,53.32
2022-10-07T11:06:03.560Z,53.25
2022-10-07T11:07:03.581Z,53.14
2022-10-07T11:08:03.536Z,52.72
2022-10-07T11:09:03.597Z,52.62
2022-10-07T11:10:03.559Z,52.89
2022-10-07T11:11:03.512Z,52.89
2022-10-07T11:12:03.502Z,52.69
2022-10-07T11:13:03.487Z,52.09
2022-10-07T11:14:03.468Z,51.29
2022-10-07T11:15:03.468Z,51.39
2022-10-07T11:16:03.509Z,51.09
2022-10-07T11:17:03.437Z,51.09
2022-10-07T11:18:03.428Z,51.26
2022-10-07T11:19:03.426Z,50.86
2022-10-07T11:20:03.414Z,49.76
2022-10-07T11:21:03.826Z,50.15
2022-10-07T11:22:03.414Z,49.65
2022-10-07T11:23:03.381Z,50.18
2022-10-07T11:24:03.373Z,50.58
2022-10-07T11:25:03.380Z,50.98
2022-10-07T11:26:03.373Z,51.56
2022-10-07T11:27:03.331Z,50.96
2022-10-07T11:28:03.367Z,50.96
2022-10-07T11:29:03.315Z,51.39
2022-10-07T11:30:03.302Z,51.99
2022-10-07T11:31:03.399Z,52.29
2022-10-07T11:32:03.325Z,51.79
2022-10-07T11:33:03.271Z,51.99
2022-10-07T11:34:03.258Z,51.09
2022-10-07T11:35:03.248Z,51.39
2022-10-07T11:36:03.238Z,51.29
2022-10-07T11:37:03.250Z,50.98
2022-10-07T11:38:03.214Z,51.79
2022-10-07T11:39:03.222Z,52.29
2022-10-07T11:40:03.238Z,51.29
2022-10-07T11:41:03.227Z,51.68
2022-10-07T11:42:03.171Z,51.68
2022-10-07T11:43:03.188Z,52.19
2022-10-07T11:44:03.149Z,52.57
2022-10-07T11:45:03.139Z,52.77
2022-10-07T11:46:07.924Z,52.26
2022-10-07T11:47:03.182Z,51.97
2022-10-07T11:48:03.115Z,51.86
2022-10-07T11:49:04.743Z,52.17
2022-10-07T11:50:03.078Z,52.17
2022-10-07T11:51:03.072Z,51.84
2022-10-07T11:52:03.070Z,51.74
2022-10-07T11:53:03.046Z,52.26
2022-10-07T11:54:03.070Z,51.46
2022-10-07T11:55:03.024Z,51.36
2022-10-07T11:56:03.036Z,51.79
2022-10-07T11:57:03.026Z,52.29
2022-10-07T11:58:02.990Z,52.49
2022-10-07T11:59:03.000Z,52.19
2022-10-07T12:00:03.245Z,52.49
2022-10-07T12:01:02.964Z,52.87
2022-10-07T12:02:03.052Z,52.87
2022-10-07T12:03:02.967Z,52.97
2022-10-07T12:04:02.929Z,53.07
2022-10-07T12:05:02.934Z,52.97
2022-10-07T12:06:02.910Z,52.06
2022-10-07T12:07:02.918Z,52.26
2022-10-07T12:08:02.889Z,52.17
2022-10-07T12:09:03.651Z,52.59
2022-10-07T12:10:02.860Z,51.89
2022-10-07T12:11:02.852Z,52.19
2022-10-07T12:12:02.832Z,52.47
2022-10-07T12:13:02.853Z,51.99
2022-10-07T12:14:02.814Z,51.76
2022-10-07T12:15:02.811Z,51.68
2022-10-07T12:16:02.819Z,51.97
2022-10-07T12:17:02.816Z,52.09
2022-10-07T12:18:02.799Z,52.29
2022-10-07T12:19:02.759Z,53.30
2022-10-07T12:20:03.819Z,53.17
2022-10-07T12:21:02.744Z,52.29
2022-10-07T12:22:02.736Z,52.77
2022-10-07T12:23:02.733Z,53.07
2022-10-07T12:24:02.713Z,52.97
2022-10-07T12:25:02.692Z,53.17
2022-10-07T12:26:02.696Z,52.47
2022-10-07T12:27:02.680Z,51.56
2022-10-07T12:28:02.717Z,51.97
2022-10-07T12:29:02.687Z,51.97
2022-10-07T12:30:02.878Z,51.56
2022-10-07T12:31:02.637Z,52.17
2022-10-07T12:32:02.702Z,51.76
2022-10-07T12:33:02.622Z,51.56
2022-10-07T12:34:02.622Z,50.96
2022-10-07T12:35:02.586Z,51.36
2022-10-07T12:36:02.571Z,51.06
2022-10-07T12:37:02.597Z,51.76
2022-10-07T12:38:02.558Z,50.89
2022-10-07T12:39:02.592Z,51.29
2022-10-07T12:40:02.612Z,50.98
2022-10-07T12:41:02.526Z,51.49
2022-10-07T12:42:02.514Z,51.26
2022-10-07T12:43:02.497Z,50.98
2022-10-07T12:44:02.489Z,51.29
2022-10-07T12:45:05.207Z,50.56
2022-10-07T12:46:02.560Z,50.18
2022-10-07T12:47:02.459Z,49.57
2022-10-07T12:48:02.449Z,49.85
2022-10-07T12:49:02.467Z,50.96
2022-10-07T12:50:02.774Z,50.05
2022-10-07T12:51:02.426Z,50.76
2022-10-07T12:52:02.403Z,51.56